Time;durP1;ratioP1;P1;durP2;ratioP2;P2;SDS_P1;SDS_P2;PMS_P1;PMS_P2;Temp;Humidity;BMP_temperature;BMP_pressure;BME280_temperature;BME280_humidity;BME280_pressure;Samples;Min_cycle;Max_cycle;Signal;HPM_P1;HPM_P2
2022/01/25 00:10:13;;;;;;;49.72;32.60;;;5.60;68.40;;;;;;6280521;22;20094;-86
2022/01/25 00:26:23;;;;;;;53.88;35.75;;;5.70;68.30;;;;;;6282127;22;20046;-85
2022/01/25 00:31:36;;;;;;;53.65;34.45;;;5.60;68.70;;;;;;6310523;22;20019;-85
2022/01/25 00:34:03;;;;;;;54.50;35.65;;;5.60;68.70;;;;;;6309954;22;20019;-85
2022/01/25 00:36:30;;;;;;;50.60;34.33;;;5.60;68.60;;;;;;6282587;22;20026;-86
2022/01/25 00:38:57;;;;;;;48.95;32.97;;;5.60;68.50;;;;;;6282523;22;20049;-85
2022/01/25 00:41:24;;;;;;;49.88;33.90;;;5.60;68.80;;;;;;6282492;22;20019;-85
2022/01/25 00:43:51;;;;;;;48.28;33.13;;;5.60;69.20;;;;;;6282708;22;20037;-85
2022/01/25 00:46:20;;;;;;;48.75;32.55;;;5.60;69.40;;;;;;6256911;22;20450;-85
2022/01/25 00:48:49;;;;;;;52.10;33.42;;;5.60;69.70;;;;;;6283343;22;20023;-86
2022/01/25 00:56:31;;;;;;;52.60;34.65;;;5.70;69.80;;;;;;6310566;22;20026;-86
2022/01/25 00:59:01;;;;;;;51.50;33.88;;;5.70;69.70;;;;;;6282275;22;20457;-85
2022/01/25 01:01:27;;;;;;;48.88;33.50;;;5.70;69.70;;;;;;6310032;22;20015;-86
2022/01/25 01:03:54;;;;;;;45.15;30.85;;;5.70;69.80;;;;;;6282434;22;20023;-86
2022/01/25 01:06:20;;;;;;;47.78;30.90;;;5.70;69.90;;;;;;6309555;22;20011;-86
2022/01/25 01:08:46;;;;;;;48.53;32.28;;;5.70;70.00;;;;;;6309727;22;20015;-85
2022/01/25 01:11:20;;;;;;;49.88;32.78;;;5.80;70.20;;;;;;6282338;22;20492;-86
2022/01/25 01:13:59;;;;;;;47.83;32.20;;;5.80;70.30;;;;;;6256985;22;20019;-86
2022/01/25 01:43:37;;;;;;;45.95;31.48;;;5.90;70.80;;;;;;6214782;23;20056;-85
2022/01/25 01:48:53;;;;;;;48.25;31.83;;;5.90;70.80;;;;;;6189513;23;20095;-85
2022/01/25 01:53:51;;;;;;;52.42;34.53;;;6.00;70.80;;;;;;6214903;23;20196;-85
2022/01/25 01:56:17;;;;;;;56.63;37.08;;;6.00;70.70;;;;;;6214737;23;20044;-86
2022/01/25 01:58:43;;;;;;;56.03;34.90;;;6.00;70.60;;;;;;6189249;23;20528;-85
2022/01/25 02:01:13;;;;;;;48.97;32.47;;;6.00;70.50;;;;;;6189773;23;20012;-85
2022/01/25 02:03:38;;;;;;;52.53;34.92;;;6.00;70.50;;;;;;6189685;23;20021;-85
2022/01/25 02:06:04;;;;;;;48.10;32.15;;;6.00;70.40;;;;;;6214645;23;20021;-85
2022/01/25 02:08:30;;;;;;;48.58;32.45;;;6.00;70.50;;;;;;6164594;23;20091;-85
2022/01/25 02:10:56;;;;;;;49.55;32.55;;;6.10;70.60;;;;;;6200897;22;20016;-85
2022/01/25 02:13:21;;;;;;;54.33;35.58;;;6.00;70.60;;;;;;6276179;22;20016;-85
2022/01/25 02:15:49;;;;;;;51.08;35.47;;;6.00;70.60;;;;;;6276571;22;20016;-85
2022/01/25 02:23:37;;;;;;;49.15;33.33;;;6.10;70.70;;;;;;6250688;22;20026;-85
2022/01/25 02:26:05;;;;;;;53.22;33.55;;;6.00;70.70;;;;;;6278303;22;20039;-84
2022/01/25 02:28:34;;;;;;;51.95;34.65;;;6.10;70.80;;;;;;6278461;22;20016;-85
2022/01/25 02:31:00;;;;;;;54.05;34.53;;;6.10;70.60;;;;;;6277717;22;20020;-84
2022/01/25 02:33:26;;;;;;;51.05;34.03;;;6.10;70.40;;;;;;6250801;22;20016;-85
2022/01/25 02:35:54;;;;;;;53.33;33.65;;;6.10;70.20;;;;;;6250995;22;20439;-85
2022/01/25 02:38:26;;;;;;;52.70;33.65;;;6.10;70.30;;;;;;6277996;22;20053;-85
2022/01/25 02:40:52;;;;;;;54.30;34.88;;;6.10;70.40;;;;;;6250376;22;20099;-85
2022/01/25 02:43:20;;;;;;;52.40;34.65;;;6.10;70.50;;;;;;6256632;22;20012;-84
2022/01/25 02:48:55;;;;;;;57.38;35.22;;;6.00;70.90;;;;;;6214214;22;20496;-86
2022/01/25 02:51:24;;;;;;;57.85;37.22;;;6.40;70.80;;;;;;6189185;23;20068;-86
2022/01/25 02:53:50;;;;;;;56.72;36.95;;;6.00;70.40;;;;;;6163492;23;20049;-85
2022/01/25 02:56:17;;;;;;;52.42;33.65;;;6.00;70.00;;;;;;6189144;23;20032;-85
2022/01/25 02:58:44;;;;;;;52.58;35.30;;;6.00;69.80;;;;;;6188879;23;20016;-85
2022/01/25 03:01:10;;;;;;;56.10;37.97;;;6.00;69.80;;;;;;6214400;23;20009;-85
2022/01/25 03:03:37;;;;;;;52.58;35.15;;;6.00;69.90;;;;;;6189267;23;20039;-85
2022/01/25 03:06:03;;;;;;;47.15;32.00;;;6.40;69.90;;;;;;6189209;23;20486;-85
2022/01/25 03:08:28;;;;;;;52.83;34.42;;;6.00;69.70;;;;;;6214663;23;20363;-85
2022/01/25 03:10:54;;;;;;;54.17;34.80;;;6.00;69.70;;;;;;6179024;23;20050;-85
2022/01/25 03:13:25;;;;;;;54.05;35.17;;;6.00;69.90;;;;;;6204289;23;20012;-86
2022/01/25 03:18:38;;;;;;;51.67;34.83;;;6.00;70.30;;;;;;6188999;23;20028;-86
2022/01/25 03:23:51;;;;;;;54.05;35.45;;;6.00;70.50;;;;;;6188785;23;20027;-86
2022/01/25 03:26:17;;;;;;;54.63;36.22;;;6.00;70.60;;;;;;6277108;22;20011;-85
2022/01/25 03:28:43;;;;;;;48.40;33.50;;;6.00;70.50;;;;;;6308557;22;20038;-86
2022/01/25 03:31:09;;;;;;;50.78;34.97;;;6.00;70.40;;;;;;6281230;22;20019;-85
2022/01/25 03:33:35;;;;;;;50.13;34.25;;;6.00;70.40;;;;;;6308425;22;20094;-86
2022/01/25 03:36:01;;;;;;;52.33;35.13;;;6.10;70.50;;;;;;6255275;22;20015;-85
2022/01/25 03:38:26;;;;;;;51.03;34.03;;;6.00;70.40;;;;;;6280298;22;20061;-85
2022/01/25 03:40:52;;;;;;;52.20;34.08;;;6.00;70.40;;;;;;6255786;22;20446;-86
2022/01/25 03:43:19;;;;;;;53.47;34.90;;;6.00;70.30;;;;;;6281332;22;20022;-86
2022/01/25 03:45:58;;;;;;;50.10;32.55;;;6.00;70.30;;;;;;6280849;22;20015;-85
2022/01/25 03:50:51;;;;;;;53.08;34.03;;;6.00;70.40;;;;;;6281261;22;20485;-85
2022/01/25 03:53:19;;;;;;;47.83;31.67;;;6.00;70.50;;;;;;6280874;22;20011;-85
2022/01/25 03:55:46;;;;;;;51.38;33.85;;;6.00;70.40;;;;;;6280656;22;20443;-86
2022/01/25 03:58:12;;;;;;;52.17;34.90;;;6.00;70.40;;;;;;6280297;22;20023;-85
2022/01/25 04:00:38;;;;;;;50.10;31.83;;;6.00;70.40;;;;;;6255564;22;20470;-86
2022/01/25 04:03:15;;;;;;;51.35;32.80;;;6.00;70.50;;;;;;6281844;22;20016;-85
2022/01/25 04:08:07;;;;;;;48.40;32.47;;;6.20;70.60;;;;;;6308893;22;20026;-85
2022/01/25 04:10:32;;;;;;;52.00;33.60;;;6.20;70.50;;;;;;6254508;22;20022;-86
2022/01/25 04:12:59;;;;;;;48.83;31.63;;;6.00;70.30;;;;;;6281413;22;20019;-87
2022/01/25 04:15:25;;;;;;;51.30;32.95;;;6.00;70.40;;;;;;6280568;22;20020;-86
2022/01/25 04:18:00;;;;;;;49.78;32.90;;;6.00;70.50;;;;;;6255109;22;20118;-86
2022/01/25 04:20:31;;;;;;;52.60;33.53;;;6.00;70.40;;;;;;6308788;22;20121;-86
2022/01/25 04:25:41;;;;;;;55.03;34.40;;;6.00;70.10;;;;;;6308801;22;20058;-86
2022/01/25 04:28:07;;;;;;;51.38;32.85;;;6.00;70.10;;;;;;6308769;22;20288;-87
2022/01/25 04:30:32;;;;;;;51.08;32.83;;;6.00;70.20;;;;;;6282218;22;20011;-85
2022/01/25 04:33:02;;;;;;;49.17;32.47;;;6.00;70.30;;;;;;6281640;22;20443;-87
2022/01/25 04:49:12;;;;;;;51.40;32.92;;;5.90;69.70;;;;;;6280953;22;20023;-86
2022/01/25 04:59:32;;;;;;;53.08;32.55;;;6.00;70.40;;;;;;6309234;22;20019;-86
2022/01/25 05:02:03;;;;;;;52.20;34.15;;;6.00;70.50;;;;;;6310301;22;20030;-86
2022/01/25 05:04:34;;;;;;;54.53;33.83;;;5.90;70.40;;;;;;6256949;22;20057;-86
2022/01/25 05:07:11;;;;;;;52.20;33.50;;;6.00;70.50;;;;;;6282805;22;20527;-85
2022/01/25 05:09:38;;;;;;;50.72;32.03;;;6.00;70.60;;;;;;6283481;22;20046;-86
2022/01/25 05:12:05;;;;;;;50.83;32.28;;;5.90;70.70;;;;;;6285838;22;20065;-86
2022/01/25 05:14:35;;;;;;;49.83;33.20;;;6.00;70.70;;;;;;6313400;22;20383;-87
2022/01/25 05:17:04;;;;;;;52.15;32.78;;;6.00;70.70;;;;;;6286534;22;20401;-86
2022/01/25 05:22:20;;;;;;;53.30;32.78;;;6.00;70.70;;;;;;6288352;22;20038;-85
2022/01/25 05:24:48;;;;;;;51.85;33.50;;;6.00;70.60;;;;;;6287375;22;20035;-86
2022/01/25 05:27:16;;;;;;;56.35;36.17;;;5.90;70.50;;;;;;6315342;22;20018;-87
2022/01/25 05:29:42;;;;;;;53.75;33.80;;;6.00;70.60;;;;;;6286912;22;20019;-87
2022/01/25 05:32:08;;;;;;;62.05;37.58;;;6.00;70.50;;;;;;6313313;22;20053;-86
2022/01/25 05:34:34;;;;;;;57.55;36.47;;;6.00;70.20;;;;;;6287056;22;20023;-85
2022/01/25 05:37:02;;;;;;;54.35;33.70;;;5.90;69.90;;;;;;6312481;22;20023;-85
2022/01/25 05:39:32;;;;;;;48.60;31.23;;;5.90;69.60;;;;;;6287431;22;20027;-86
2022/01/25 05:42:17;;;;;;;54.20;33.30;;;5.90;69.60;;;;;;6283814;22;20114;-86
2022/01/25 05:44:56;;;;;;;51.30;31.80;;;6.00;69.90;;;;;;6311272;22;20015;-86
2022/01/25 05:47:29;;;;;;;62.15;36.47;;;5.90;70.00;;;;;;6257800;22;20015;-86
2022/01/25 05:49:57;;;;;;;51.15;34.10;;;5.90;70.00;;;;;;6282187;22;20007;-86
2022/01/25 05:52:23;;;;;;;53.28;33.47;;;5.90;70.10;;;;;;6256747;22;20026;-86
2022/01/25 05:54:48;;;;;;;53.92;33.63;;;5.90;70.20;;;;;;6281857;22;20011;-86
2022/01/25 05:57:14;;;;;;;52.28;33.47;;;5.90;70.30;;;;;;6309195;22;20130;-86
2022/01/25 05:59:40;;;;;;;54.65;35.33;;;5.90;70.40;;;;;;6281595;22;20022;-85
2022/01/25 06:02:06;;;;;;;54.25;34.58;;;5.90;70.50;;;;;;6281793;22;20022;-86
2022/01/25 06:04:32;;;;;;;56.28;34.83;;;5.90;70.30;;;;;;6281598;22;20011;-86
2022/01/25 06:06:58;;;;;;;53.78;33.00;;;5.90;70.40;;;;;;6282083;22;20019;-86
2022/01/25 06:09:24;;;;;;;51.72;32.70;;;5.90;70.90;;;;;;6281873;22;20094;-86
2022/01/25 06:11:52;;;;;;;54.08;33.55;;;5.90;70.50;;;;;;6281668;22;20051;-85
2022/01/25 06:14:18;;;;;;;51.10;32.55;;;5.90;70.60;;;;;;6281703;22;20117;-87
2022/01/25 06:16:43;;;;;;;56.58;34.40;;;6.00;70.80;;;;;;6281567;22;20450;-86
2022/01/25 06:19:09;;;;;;;52.75;31.90;;;5.90;70.90;;;;;;6281666;22;20017;-86
2022/01/25 06:21:35;;;;;;;51.92;32.08;;;5.90;70.90;;;;;;6255337;22;20015;-84
2022/01/25 06:24:00;;;;;;;56.47;36.25;;;5.90;70.90;;;;;;6282009;22;20443;-85
2022/01/25 06:26:26;;;;;;;60.65;36.95;;;5.90;70.70;;;;;;6282028;22;20016;-85
2022/01/25 06:28:52;;;;;;;50.30;32.50;;;5.90;70.30;;;;;;6281795;22;20374;-85
2022/01/25 06:31:18;;;;;;;53.28;32.53;;;5.90;70.00;;;;;;6283617;22;20020;-85
2022/01/25 06:33:45;;;;;;;55.78;34.40;;;6.10;70.20;;;;;;6309421;22;20015;-85
2022/01/25 06:36:11;;;;;;;53.67;34.45;;;5.90;70.40;;;;;;6256073;22;20007;-85
2022/01/25 06:38:37;;;;;;;54.45;33.25;;;5.90;70.50;;;;;;6309456;22;20062;-85
2022/01/25 06:41:03;;;;;;;53.05;33.03;;;5.90;70.60;;;;;;6308652;22;20090;-85
2022/01/25 06:43:28;;;;;;;53.45;33.95;;;5.90;70.70;;;;;;6281222;22;20423;-84
2022/01/25 06:45:59;;;;;;;53.33;32.72;;;6.00;70.80;;;;;;6281305;22;20060;-84
2022/01/25 06:48:24;;;;;;;55.38;34.47;;;5.90;70.80;;;;;;6280102;22;20022;-84
2022/01/25 06:50:50;;;;;;;52.40;32.05;;;5.90;70.80;;;;;;6309343;22;20375;-84
2022/01/25 06:53:16;;;;;;;51.45;33.25;;;5.90;70.80;;;;;;6281428;22;20461;-84
2022/01/25 06:55:42;;;;;;;56.22;33.50;;;5.90;70.90;;;;;;6281380;22;20042;-85
2022/01/25 06:58:08;;;;;;;56.85;34.78;;;5.90;70.90;;;;;;6280680;22;20042;-85
2022/01/25 07:00:34;;;;;;;59.50;36.10;;;5.90;71.00;;;;;;6281013;22;20019;-85
2022/01/25 07:03:00;;;;;;;51.90;31.33;;;5.90;71.00;;;;;;6309020;22;20022;-86
2022/01/25 07:05:27;;;;;;;52.95;35.00;;;5.90;70.80;;;;;;6280297;22;20023;-84
2022/01/25 07:07:53;;;;;;;56.20;35.47;;;5.90;70.80;;;;;;6307044;22;20430;-85
2022/01/25 07:10:19;;;;;;;61.33;36.78;;;5.90;70.80;;;;;;6280898;22;20016;-85
2022/01/25 07:12:45;;;;;;;55.03;34.33;;;5.90;70.80;;;;;;6280187;22;20015;-85
2022/01/25 07:15:12;;;;;;;56.85;35.13;;;5.90;70.80;;;;;;6308470;22;20130;-84
2022/01/25 07:17:39;;;;;;;58.08;36.03;;;5.90;70.90;;;;;;6308253;22;20022;-85
2022/01/25 07:20:06;;;;;;;53.58;32.83;;;5.90;71.30;;;;;;6307182;22;20443;-85
2022/01/25 07:22:33;;;;;;;58.90;35.33;;;5.90;70.90;;;;;;6281305;22;20439;-84
2022/01/25 07:24:59;;;;;;;57.67;34.30;;;5.90;70.90;;;;;;6281331;22;20011;-84
2022/01/25 07:27:25;;;;;;;53.25;33.05;;;5.90;70.90;;;;;;6279967;22;20102;-86
2022/01/25 07:29:50;;;;;;;56.08;34.42;;;5.90;70.90;;;;;;6281175;22;20035;-85
2022/01/25 07:32:16;;;;;;;56.90;35.70;;;6.00;71.00;;;;;;6281574;22;20020;-85
2022/01/25 07:34:41;;;;;;;59.85;36.30;;;6.10;71.00;;;;;;6311387;22;20047;-85
2022/01/25 07:37:07;;;;;;;58.40;35.65;;;6.00;70.90;;;;;;6305619;22;20015;-85
2022/01/25 07:39:33;;;;;;;58.55;36.47;;;6.00;70.80;;;;;;6329418;22;20011;-85
2022/01/25 07:41:59;;;;;;;60.08;36.67;;;6.00;70.80;;;;;;6314668;22;20019;-85
2022/01/25 07:44:32;;;;;;;61.17;37.33;;;5.90;70.80;;;;;;6281463;22;20019;-85
2022/01/25 07:47:00;;;;;;;59.30;35.55;;;6.10;70.90;;;;;;6281396;22;20023;-85
2022/01/25 07:49:27;;;;;;;58.25;35.30;;;6.00;70.80;;;;;;6255596;22;20042;-85
2022/01/25 07:51:53;;;;;;;55.33;34.15;;;5.90;70.70;;;;;;6281190;22;20019;-85
2022/01/25 07:54:20;;;;;;;55.63;35.15;;;6.00;70.40;;;;;;6281069;22;20034;-85
2022/01/25 07:56:45;;;;;;;56.33;35.25;;;6.00;70.40;;;;;;6308669;22;20015;-85
2022/01/25 07:59:11;;;;;;;57.45;33.63;;;6.00;70.50;;;;;;6280879;22;20026;-85
2022/01/25 08:01:37;;;;;;;57.70;35.15;;;6.00;70.60;;;;;;6310974;22;20026;-85
2022/01/25 08:04:04;;;;;;;55.70;34.70;;;6.00;70.70;;;;;;6308864;22;20453;-86
2022/01/25 08:06:30;;;;;;;58.78;34.72;;;6.00;70.80;;;;;;6309158;22;20017;-86
2022/01/25 08:08:56;;;;;;;56.65;34.78;;;6.00;70.80;;;;;;6255578;22;20468;-83
2022/01/25 08:11:22;;;;;;;56.78;34.80;;;6.00;70.90;;;;;;6281083;22;20197;-82
2022/01/25 08:13:49;;;;;;;55.70;34.63;;;6.20;71.00;;;;;;6281020;22;20015;-84
2022/01/25 08:16:16;;;;;;;56.63;34.75;;;6.00;70.80;;;;;;6308354;22;20015;-83
2022/01/25 08:18:42;;;;;;;62.20;36.42;;;6.00;70.80;;;;;;6281048;22;20042;-84
2022/01/25 08:21:09;;;;;;;57.85;35.45;;;6.00;70.80;;;;;;6281062;22;20011;-84
2022/01/25 08:23:34;;;;;;;58.95;35.67;;;5.90;70.80;;;;;;6281126;22;20388;-84
2022/01/25 08:26:00;;;;;;;58.38;36.30;;;6.00;70.80;;;;;;6308767;22;20015;-84
2022/01/25 08:28:26;;;;;;;55.58;34.70;;;6.00;70.90;;;;;;6308842;22;20088;-85
2022/01/25 08:30:51;;;;;;;54.50;34.63;;;6.00;70.90;;;;;;6280867;22;20436;-84
2022/01/25 08:33:17;;;;;;;55.28;34.92;;;6.00;70.90;;;;;;6280766;22;20039;-84
2022/01/25 08:35:43;;;;;;;60.03;37.08;;;6.00;70.90;;;;;;6308511;22;20026;-83
2022/01/25 08:38:09;;;;;;;57.55;34.15;;;6.00;70.90;;;;;;6280953;22;20327;-83
2022/01/25 08:40:35;;;;;;;56.35;34.63;;;6.30;71.10;;;;;;6280930;22;20090;-83
2022/01/25 08:43:01;;;;;;;58.40;36.85;;;6.00;71.00;;;;;;6280840;22;20051;-83
2022/01/25 08:45:27;;;;;;;57.65;36.78;;;6.00;70.90;;;;;;6281400;22;20011;-83
2022/01/25 08:47:53;;;;;;;58.38;34.38;;;6.00;70.60;;;;;;6282751;22;20366;-83
2022/01/25 08:50:19;;;;;;;61.45;36.70;;;6.00;70.50;;;;;;6310492;22;20024;-83
2022/01/25 08:52:44;;;;;;;54.63;34.42;;;6.00;70.50;;;;;;6282316;22;20016;-83
2022/01/25 08:55:11;;;;;;;60.20;36.35;;;6.00;70.70;;;;;;6283121;22;20019;-83
2022/01/25 08:57:36;;;;;;;58.13;35.40;;;6.00;70.70;;;;;;6282770;22;20089;-83
2022/01/25 09:00:06;;;;;;;54.28;33.88;;;6.00;70.60;;;;;;6282788;22;20458;-83
2022/01/25 09:02:32;;;;;;;56.50;33.42;;;6.00;70.60;;;;;;6309678;22;20338;-83
2022/01/25 09:04:57;;;;;;;60.58;36.25;;;6.00;70.70;;;;;;6310219;22;20011;-83
2022/01/25 09:07:23;;;;;;;59.22;34.10;;;6.00;70.70;;;;;;6282341;22;20064;-83
2022/01/25 09:09:49;;;;;;;54.38;34.15;;;6.00;70.70;;;;;;6308311;22;20316;-84
2022/01/25 09:12:14;;;;;;;61.28;36.25;;;6.00;70.80;;;;;;6282608;22;20019;-83
2022/01/25 09:14:40;;;;;;;61.92;36.83;;;6.00;70.90;;;;;;6282305;22;20016;-83
2022/01/25 09:17:09;;;;;;;54.60;34.92;;;6.00;70.90;;;;;;6282655;22;20043;-83
2022/01/25 09:19:38;;;;;;;56.72;36.13;;;6.00;70.90;;;;;;6257066;22;20019;-83
2022/01/25 09:22:06;;;;;;;60.53;36.60;;;6.00;71.00;;;;;;6282781;22;20050;-83
2022/01/25 09:24:32;;;;;;;58.22;35.67;;;6.00;71.00;;;;;;6282405;22;20011;-83
2022/01/25 09:26:57;;;;;;;57.92;35.22;;;6.20;71.10;;;;;;6282545;22;20016;-83
2022/01/25 09:29:23;;;;;;;61.95;37.15;;;6.00;70.90;;;;;;6257184;22;20443;-83
2022/01/25 09:31:49;;;;;;;57.50;35.88;;;6.10;70.90;;;;;;6309861;22;20016;-83
2022/01/25 09:34:15;;;;;;;59.90;35.15;;;6.20;71.00;;;;;;6282056;22;20011;-83
2022/01/25 09:36:41;;;;;;;61.53;34.60;;;6.00;70.60;;;;;;6309458;22;20450;-83
2022/01/25 09:39:07;;;;;;;63.25;36.22;;;6.00;70.40;;;;;;6282545;22;20011;-83
2022/01/25 09:41:34;;;;;;;60.05;35.58;;;6.00;70.40;;;;;;6282471;22;20050;-83
2022/01/25 09:44:00;;;;;;;59.03;36.63;;;6.00;70.40;;;;;;6282035;22;20458;-83
2022/01/25 09:46:25;;;;;;;64.40;37.17;;;6.00;70.60;;;;;;6282097;22;20023;-83
2022/01/25 09:48:52;;;;;;;60.05;36.22;;;6.00;70.70;;;;;;6309715;22;20015;-83
2022/01/25 09:51:19;;;;;;;57.55;35.13;;;6.00;70.70;;;;;;6282008;22;20023;-83
2022/01/25 09:53:45;;;;;;;63.53;36.97;;;6.50;71.00;;;;;;6309615;22;20011;-83
2022/01/25 09:56:11;;;;;;;68.13;40.13;;;6.10;70.70;;;;;;6282011;22;20054;-83
2022/01/25 09:58:36;;;;;;;71.28;42.10;;;6.00;70.60;;;;;;6282340;22;20450;-83
2022/01/25 10:01:04;;;;;;;66.85;38.90;;;6.10;70.50;;;;;;6308476;22;20431;-83
2022/01/25 10:03:36;;;;;;;79.28;43.72;;;6.10;70.30;;;;;;6257198;22;20057;-83
2022/01/25 10:06:03;;;;;;;67.25;38.97;;;6.00;70.60;;;;;;6257319;22;20019;-84
2022/01/25 10:08:35;;;;;;;68.50;40.58;;;6.30;70.40;;;;;;6281879;22;20082;-84
2022/01/25 10:11:13;;;;;;;66.05;37.75;;;6.00;70.20;;;;;;6309165;22;20556;-82
2022/01/25 10:13:48;;;;;;;64.78;39.17;;;6.00;70.20;;;;;;6281995;22;20060;-83
2022/01/25 10:16:18;;;;;;;81.13;47.22;;;6.10;70.30;;;;;;6281566;22;20047;-83
2022/01/25 10:18:52;;;;;;;74.13;41.97;;;6.50;70.60;;;;;;6281682;22;20019;-83
2022/01/25 10:21:25;;;;;;;78.22;45.25;;;6.10;70.20;;;;;;6309811;22;20018;-83
2022/01/25 10:24:09;;;;;;;64.72;39.65;;;6.10;70.20;;;;;;6282142;22;20019;-84
2022/01/25 10:26:41;;;;;;;69.65;41.13;;;6.10;70.20;;;;;;6309384;22;20443;-83
2022/01/25 10:29:08;;;;;;;66.47;37.38;;;6.10;70.30;;;;;;6281826;22;20008;-83
2022/01/25 10:31:40;;;;;;;70.45;39.15;;;6.10;70.40;;;;;;6281835;22;20015;-83
2022/01/25 10:34:08;;;;;;;69.90;40.47;;;6.10;70.60;;;;;;6256295;22;20066;-83
2022/01/25 10:36:44;;;;;;;76.75;45.05;;;6.10;70.70;;;;;;6281959;22;20016;-83
2022/01/25 10:39:10;;;;;;;77.90;42.88;;;6.20;70.90;;;;;;6281311;22;20362;-83
2022/01/25 10:41:36;;;;;;;82.90;46.55;;;6.10;70.90;;;;;;6281632;22;20019;-83
2022/01/25 10:44:02;;;;;;;79.55;46.17;;;6.10;70.90;;;;;;6281530;22;20065;-84
2022/01/25 10:46:30;;;;;;;77.47;44.53;;;6.10;70.90;;;;;;6309325;22;20094;-83
2022/01/25 10:49:10;;;;;;;81.68;46.00;;;6.20;71.00;;;;;;6281750;22;20331;-82
2022/01/25 10:51:40;;;;;;;79.03;44.38;;;6.20;71.00;;;;;;6281779;22;20015;-83
2022/01/25 10:54:31;;;;;;;76.88;43.45;;;6.30;71.00;;;;;;6281638;22;20011;-83
2022/01/25 10:56:57;;;;;;;79.05;44.03;;;6.20;71.00;;;;;;6280478;22;20453;-83
2022/01/25 10:59:28;;;;;;;74.57;41.08;;;6.20;70.90;;;;;;6256042;22;20334;-83
2022/01/25 11:01:54;;;;;;;71.93;41.90;;;6.20;70.90;;;;;;6281807;22;20018;-83
2022/01/25 11:04:29;;;;;;;67.88;41.15;;;6.20;70.90;;;;;;6256107;22;20015;-83
2022/01/25 11:07:04;;;;;;;71.00;40.17;;;6.50;71.00;;;;;;6281561;22;20011;-83
2022/01/25 11:09:42;;;;;;;70.43;39.95;;;6.20;70.80;;;;;;6281061;22;20372;-84
2022/01/25 11:12:12;;;;;;;70.50;41.25;;;6.20;70.80;;;;;;6281470;22;20015;-83
2022/01/25 11:14:51;;;;;;;67.70;39.85;;;6.20;70.70;;;;;;6281739;22;20361;-84
2022/01/25 11:17:25;;;;;;;66.57;38.05;;;6.30;70.60;;;;;;6308763;22;20015;-83
2022/01/25 11:19:52;;;;;;;;;;;6.30;70.50;;;;;;6282124;22;20486;-83
2022/01/25 11:22:21;;;;;;;65.15;37.83;;;6.20;70.40;;;;;;6281490;22;19957;-83
2022/01/25 11:24:59;;;;;;;67.53;36.45;;;6.20;70.60;;;;;;6308787;22;20406;-83
2022/01/25 11:27:28;;;;;;;68.70;38.85;;;6.30;70.60;;;;;;6281381;22;20027;-83
2022/01/25 11:30:05;;;;;;;65.97;38.50;;;6.30;70.70;;;;;;6281390;22;20022;-84
2022/01/25 11:32:36;;;;;;;66.05;39.00;;;6.30;70.70;;;;;;6309085;22;20019;-83
2022/01/25 11:35:05;;;;;;;64.75;37.60;;;6.30;70.80;;;;;;6281897;22;20026;-84
2022/01/25 11:37:50;;;;;;;67.00;37.78;;;6.30;70.70;;;;;;6281407;22;20095;-85
2022/01/25 11:40:30;;;;;;;67.82;38.30;;;6.30;70.70;;;;;;6308784;22;20526;-84
2022/01/25 11:43:02;;;;;;;68.57;38.95;;;6.30;70.80;;;;;;6281741;22;20050;-84
2022/01/25 11:45:34;;;;;;;65.07;37.88;;;6.50;70.80;;;;;;6308886;22;20022;-84
2022/01/25 11:48:01;;;;;;;60.95;36.55;;;6.30;70.50;;;;;;6281861;22;20022;-84
2022/01/25 11:50:33;;;;;;;62.67;36.55;;;6.30;70.50;;;;;;6281150;22;20478;-83
2022/01/25 11:53:07;;;;;;;72.82;39.33;;;6.40;70.70;;;;;;6281050;22;20068;-83
2022/01/25 11:55:37;;;;;;;64.93;39.00;;;6.40;70.80;;;;;;6286144;22;20421;-83
2022/01/25 11:58:10;;;;;;;65.05;38.30;;;6.40;70.70;;;;;;6308924;22;20063;-83
2022/01/25 12:00:41;;;;;;;62.83;36.33;;;6.40;70.70;;;;;;6278368;22;20012;-84
2022/01/25 12:03:25;;;;;;;64.38;37.83;;;6.40;70.70;;;;;;6257972;22;20045;-84
2022/01/25 12:06:03;;;;;;;61.95;35.25;;;6.50;70.60;;;;;;6308555;22;20476;-84
2022/01/25 12:08:41;;;;;;;66.25;38.88;;;6.40;70.60;;;;;;6309358;22;20022;-84
2022/01/25 12:11:27;;;;;;;59.90;34.95;;;6.40;70.60;;;;;;6281461;22;20023;-84
2022/01/25 12:14:14;;;;;;;70.70;39.25;;;6.40;70.40;;;;;;6281020;22;20025;-84
2022/01/25 12:17:02;;;;;;;64.45;36.55;;;6.40;70.40;;;;;;6281011;22;20427;-84
2022/01/25 12:19:37;;;;;;;64.20;37.90;;;6.50;70.50;;;;;;6308251;22;20038;-83
2022/01/25 12:22:11;;;;;;;62.88;37.72;;;6.40;70.40;;;;;;6312084;22;20016;-84
2022/01/25 12:24:43;;;;;;;63.42;36.88;;;6.40;70.40;;;;;;6312179;22;20045;-84
2022/01/25 12:30:00;;;;;;;67.38;39.08;;;6.50;70.50;;;;;;6284565;22;20022;-85
2022/01/25 12:32:29;;;;;;;70.25;40.13;;;6.50;70.50;;;;;;6258794;22;20342;-85
2022/01/25 12:35:12;;;;;;;71.57;39.90;;;6.50;70.50;;;;;;6312201;22;20011;-85
2022/01/25 12:37:44;;;;;;;61.17;35.90;;;6.50;70.40;;;;;;6311957;22;20060;-85
2022/01/25 12:40:25;;;;;;;63.13;37.85;;;6.50;70.40;;;;;;6287499;22;20015;-85
2022/01/25 12:42:51;;;;;;;61.80;35.78;;;6.50;70.30;;;;;;6261253;22;20067;-85
2022/01/25 12:45:21;;;;;;;64.40;36.10;;;6.50;70.40;;;;;;6289085;22;20148;-86
2022/01/25 12:47:55;;;;;;;67.35;37.63;;;6.70;70.50;;;;;;6317658;22;20022;-85
2022/01/25 12:50:22;;;;;;;64.47;37.60;;;6.60;70.40;;;;;;6316767;22;20015;-86
2022/01/25 12:52:49;;;;;;;63.85;38.70;;;7.00;70.70;;;;;;6313162;22;20015;-85
2022/01/25 12:55:21;;;;;;;65.63;38.10;;;6.50;70.50;;;;;;6312096;22;20443;-86
2022/01/25 12:57:48;;;;;;;70.03;37.58;;;6.70;70.60;;;;;;6285002;22;20494;-85
2022/01/25 13:00:15;;;;;;;69.60;38.55;;;6.50;70.40;;;;;;6259312;22;20022;-85
2022/01/25 13:02:41;;;;;;;64.65;37.45;;;6.60;70.40;;;;;;6284668;22;20339;-85
2022/01/25 13:05:19;;;;;;;65.38;38.05;;;6.60;70.40;;;;;;6311956;22;20430;-85
2022/01/25 13:07:45;;;;;;;57.35;34.92;;;6.60;70.40;;;;;;6284741;22;20022;-85
2022/01/25 13:10:25;;;;;;;60.05;35.40;;;6.60;70.40;;;;;;6283778;22;20015;-84
2022/01/25 13:12:57;;;;;;;60.03;35.20;;;6.60;70.20;;;;;;6283964;22;20059;-84
2022/01/25 13:15:52;;;;;;;58.85;36.33;;;6.60;70.20;;;;;;6283921;22;20041;-84
2022/01/25 13:18:14;;;;;;;62.40;37.10;;;6.60;70.30;;;;;;6311230;22;20033;-84
2022/01/25 13:20:43;;;;;;;58.33;33.58;;;6.50;70.30;;;;;;6283655;22;20017;-85
2022/01/25 13:23:09;;;;;;;59.90;35.88;;;6.90;70.50;;;;;;6284774;22;20026;-84
2022/01/25 13:31:12;;;;;;;62.60;35.95;;;6.60;70.30;;;;;;6215861;23;20099;-84
2022/01/25 13:33:38;;;;;;;62.72;36.60;;;6.60;70.20;;;;;;6190367;23;20547;-85
2022/01/25 13:36:07;;;;;;;57.17;33.78;;;6.90;70.30;;;;;;6214961;23;20052;-85
2022/01/25 13:38:38;;;;;;;56.83;34.08;;;6.60;70.00;;;;;;6190399;23;20083;-85
2022/01/25 13:41:29;;;;;;;57.00;33.60;;;6.60;70.10;;;;;;6190283;23;20023;-85
2022/01/25 13:46:40;;;;;;;65.53;35.72;;;6.60;70.10;;;;;;6184943;23;20017;-84
2022/01/25 13:49:13;;;;;;;61.38;35.22;;;6.60;70.00;;;;;;6160369;23;20493;-85
2022/01/25 13:51:43;;;;;;;57.67;32.65;;;6.60;70.00;;;;;;6160327;23;20013;-85
2022/01/25 13:54:13;;;;;;;56.42;33.03;;;6.80;70.20;;;;;;6160294;23;20017;-84
2022/01/25 13:56:39;;;;;;;59.65;33.80;;;6.50;69.90;;;;;;6185007;23;20021;-84
2022/01/25 13:59:06;;;;;;;53.72;31.65;;;6.70;70.00;;;;;;6135291;23;20013;-85
2022/01/25 14:01:35;;;;;;;56.72;31.98;;;6.60;69.90;;;;;;6159934;23;20020;-85
2022/01/25 14:04:33;;;;;;;61.03;34.88;;;6.80;70.00;;;;;;6184915;23;20021;-84
2022/01/25 14:07:00;;;;;;;55.45;32.28;;;6.70;70.00;;;;;;6100624;23;20118;-84
2022/01/25 14:09:34;;;;;;;56.92;33.08;;;6.60;70.10;;;;;;6155055;23;20014;-85
2022/01/25 14:25:27;;;;;;;;;;;6.50;70.00;;;;;;6155848;23;20025;-84
2022/01/25 14:27:56;;;;;;;61.25;32.63;;;6.50;70.00;;;;;;6130314;23;20288;-84
2022/01/25 14:30:22;;;;;;;58.05;33.95;;;6.50;70.20;;;;;;6154692;23;20018;-84
2022/01/25 14:33:14;;;;;;;58.08;32.83;;;7.00;70.50;;;;;;6105727;23;20064;-84
2022/01/25 14:35:56;;;;;;;56.33;32.80;;;6.60;70.00;;;;;;6129964;23;20017;-84
2022/01/25 14:38:27;;;;;;;58.55;32.92;;;6.60;70.10;;;;;;6154629;23;20021;-84
2022/01/25 14:41:04;;;;;;;54.35;31.70;;;6.60;70.20;;;;;;6154444;23;20096;-84
2022/01/25 14:43:34;;;;;;;56.40;33.25;;;6.60;70.30;;;;;;6226204;22;20016;-84
2022/01/25 14:46:17;;;;;;;60.60;33.67;;;6.60;70.30;;;;;;6282362;22;20023;-84
2022/01/25 14:48:45;;;;;;;64.32;36.00;;;6.70;70.30;;;;;;6281628;22;20019;-83
2022/01/25 14:51:12;;;;;;;58.08;33.63;;;7.00;70.60;;;;;;6281764;22;20042;-84
2022/01/25 14:53:43;;;;;;;60.40;35.15;;;6.60;70.30;;;;;;6309536;22;20084;-83
2022/01/25 14:56:12;;;;;;;63.40;34.17;;;6.60;70.30;;;;;;6281663;22;20016;-84
2022/01/25 15:01:17;;;;;;;63.10;35.78;;;6.60;70.20;;;;;;6280792;22;20093;-83
2022/01/25 15:03:45;;;;;;;70.32;37.42;;;6.60;70.10;;;;;;6281498;22;20019;-83